Kibele — 9HA3346 — position and weather

sailwx.info

Track history (hours):
 
Tides and Currents Weather Stations Pressure Air Temp Water Temp Dewpoint Dewpoint Depression Visibility Wind Speed Wind Dir Waves Ship Positions

Kibele

Last reported at 2018-Feb-16 03:09 UTC. Time now 2018-Jul-18 18:32 UTC.
Position N 38°19' E 004°57'.
Warning: this ship's position is months out of date.

Length 116 m; draft 8.4 m.

Type: Cargo ship. MMSI: 229457000.

Date/timePositionNaut miles runAvg speedWind from/ knotsBaromVisibWave heightAir tempDewpointWater temp
2018-Feb-16 03:09N 38°19' E 004°57'2 9.8
2018-Feb-16 02:58N 38°19' E 004°55'5 9.8
2018-Feb-16 02:30N 38°17' E 004°49'6 9.8
2018-Feb-16 01:53N 38°15' E 004°42'4 9.9
2018-Feb-16 01:30N 38°14' E 004°38'5 9.7
2018-Feb-16 01:00N 38°12' E 004°32'5 9.6
2018-Feb-16 00:30N 38°11' E 004°26'5 9.7
2018-Feb-16 00:00N 38°09' E 004°20'5 9.7
2018-Feb-15 23:29N 38°08' E 004°14'473 9.8
2018-Feb-13 23:12N 35°57' W 005°16'2 9.7
2018-Feb-13 23:00N 35°57' W 005°18'2 4.3
2018-Feb-13 22:30N 35°55' W 005°20'0 0.9
2018-Feb-13 22:00N 35°55' W 005°20'0 0.0
2018-Feb-13 21:30N 35°55' W 005°20'0 0.0
2018-Feb-13 21:00N 35°55' W 005°20'0 0.0
2018-Feb-13 20:30N 35°55' W 005°20'0 0.3
2018-Feb-13 20:00N 35°55' W 005°20'0 0.2
2018-Feb-13 19:30N 35°55' W 005°20'0 0.2
2018-Feb-13 19:00N 35°55' W 005°20'0 0.7
2018-Feb-13 18:30N 35°55' W 005°20'3 5.2
2018-Feb-13 18:00N 35°58' W 005°21'4 8.5
2018-Feb-13 17:30N 35°57' W 005°27'  
Track history (hours):
 
Tides and Currents Weather Stations Pressure Air Temp Water Temp Dewpoint Dewpoint Depression Visibility Wind Speed Wind Dir Waves Ship Positions

Kibele

Last reported at 2018-Feb-16 03:09 UTC. Time now 2018-Jul-18 18:32 UTC.
Position N 38°19' E 004°57'.
Warning: this ship's position is months out of date.

Length 116 m; draft 8.4 m.

Type: Cargo ship. MMSI: 229457000.

Date/timePositionNaut miles runAvg speedWind from/ knotsBaromVisibWave heightAir tempDewpointWater temp
2018-Feb-16 03:09N 38°19' E 004°57'2 9.8
2018-Feb-16 02:58N 38°19' E 004°55'5 9.8
2018-Feb-16 02:30N 38°17' E 004°49'6 9.8
2018-Feb-16 01:53N 38°15' E 004°42'4 9.9
2018-Feb-16 01:30N 38°14' E 004°38'5 9.7
2018-Feb-16 01:00N 38°12' E 004°32'5 9.6
2018-Feb-16 00:30N 38°11' E 004°26'5 9.7
2018-Feb-16 00:00N 38°09' E 004°20'5 9.7
2018-Feb-15 23:29N 38°08' E 004°14'473 9.8
2018-Feb-13 23:12N 35°57' W 005°16'2 9.7
2018-Feb-13 23:00N 35°57' W 005°18'2 4.3
2018-Feb-13 22:30N 35°55' W 005°20'0 0.9
2018-Feb-13 22:00N 35°55' W 005°20'0 0.0
2018-Feb-13 21:30N 35°55' W 005°20'0 0.0
2018-Feb-13 21:00N 35°55' W 005°20'0 0.0
2018-Feb-13 20:30N 35°55' W 005°20'0 0.3
2018-Feb-13 20:00N 35°55' W 005°20'0 0.2
2018-Feb-13 19:30N 35°55' W 005°20'0 0.2
2018-Feb-13 19:00N 35°55' W 005°20'0 0.7
2018-Feb-13 18:30N 35°55' W 005°20'3 5.2
2018-Feb-13 18:00N 35°58' W 005°21'4 8.5
2018-Feb-13 17:30N 35°57' W 005°27'  

Dump ship's entire track history